Rowe, New Mexico
Current Conditions -  °F | °C
As of 12:53 PM on Wednesday 28 Jan 2015 (Local Time) from KSAF Reporting Station
Clear Clear  
Wind Chill: 55°   Ceiling: Unl
Heat Index: 55°   Visibility: 10mi
Dew Point: 27°   Wind: 10mph
Humidity: 34%   Direction: 330°NNW
Pressure: 30.2"   Gusts: 17mph
Location:  35.49°N, 105.68°W
Report Text: KSAF 281953Z 33009G15KT 10SM CLR 13/M03 A3020 RMK AO2 SLP179 T01281028
Loading
Personal Weather Stations






























Interactive Weather Map New forecast layout! Learn more

10-Day Weather Forecast

Advertisements
Track Severe Weather on mobile